Time;durP1;ratioP1;P1;durP2;ratioP2;P2;SDS_P1;SDS_P2;PMS_P1;PMS_P2;Temp;Humidity;BMP_temperature;BMP_pressure;BME280_temperature;BME280_humidity;BME280_pressure;Samples;Min_cycle;Max_cycle;Signal;HPM_P1;HPM_P2
2022/02/28 00:02:12;;;;;;;13.25;5.40;;;;;;;2.84;65.25;103090.00;5027762;28;20033;-60
2022/02/28 00:04:37;;;;;;;11.32;5.72;;;;;;;2.84;65.05;103092.59;5017917;28;20042;-60
2022/02/28 00:07:03;;;;;;;11.32;4.75;;;;;;;2.83;65.05;103087.34;5012777;28;20392;-60
2022/02/28 00:09:28;;;;;;;10.25;5.70;;;;;;;2.80;65.17;103089.84;5007367;28;20040;-61
2022/02/28 00:11:54;;;;;;;10.40;5.53;;;;;;;2.78;65.13;103101.09;5007104;28;20021;-62
2022/02/28 00:14:19;;;;;;;9.32;4.90;;;;;;;2.77;65.17;103101.03;5007938;28;20435;-61
2022/02/28 00:16:44;;;;;;;12.65;5.25;;;;;;;2.73;65.11;103100.03;5017940;28;20064;-61
2022/02/28 00:19:10;;;;;;;7.72;4.70;;;;;;;2.63;65.54;103098.81;5027862;28;20025;-61
2022/02/28 00:21:35;;;;;;;12.82;5.50;;;;;;;2.62;65.57;103090.97;5026828;28;20105;-62
2022/02/28 00:24:00;;;;;;;11.55;5.00;;;;;;;2.61;65.46;103092.66;5027609;28;20060;-62
2022/02/28 00:26:26;;;;;;;9.40;4.82;;;;;;;2.64;65.41;103086.66;5026685;28;20041;-62
2022/02/28 00:28:51;;;;;;;8.48;4.93;;;;;;;2.60;65.89;103092.59;5026495;28;20025;-61
2022/02/28 00:31:18;;;;;;;11.55;5.35;;;;;;;2.61;65.28;103083.97;5027533;28;20037;-63
2022/02/28 00:33:43;;;;;;;9.43;4.78;;;;;;;2.57;65.54;103095.09;5026608;28;20487;-62
2022/02/28 00:36:09;;;;;;;14.95;5.38;;;;;;;2.53;65.58;103091.53;5026066;28;20029;-62
2022/02/28 00:38:34;;;;;;;11.07;5.32;;;;;;;2.48;65.86;103098.25;5025997;28;20494;-62
2022/02/28 00:41:00;;;;;;;7.90;5.05;;;;;;;2.43;66.14;103094.59;5025885;28;20114;-59
2022/02/28 00:43:25;;;;;;;9.48;4.95;;;;;;;2.42;66.17;103083.31;5025836;28;20080;-61
2022/02/28 00:45:51;;;;;;;9.95;5.28;;;;;;;2.45;65.97;103096.44;5025955;28;20029;-60
2022/02/28 00:48:17;;;;;;;15.40;5.30;;;;;;;2.43;66.04;103087.66;5027074;28;20116;-61
2022/02/28 00:50:42;;;;;;;10.50;5.10;;;;;;;2.42;66.14;103088.50;5027522;28;20035;-62
2022/02/28 00:53:07;;;;;;;6.43;4.55;;;;;;;2.39;65.69;103089.28;5011507;28;20388;-60
2022/02/28 00:55:33;;;;;;;9.38;5.45;;;;;;;2.33;66.37;103101.19;5007076;28;20065;-61
2022/02/28 00:57:58;;;;;;;12.57;5.13;;;;;;;2.33;66.57;103106.38;5005835;28;20025;-61
2022/02/28 01:00:23;;;;;;;12.35;5.72;;;;;;;2.30;66.58;103103.66;5005990;28;20387;-60
2022/02/28 01:02:49;;;;;;;10.82;6.15;;;;;;;2.26;66.77;103105.28;5006619;28;20018;-61
2022/02/28 01:05:16;;;;;;;13.48;5.20;;;;;;;2.22;66.72;103100.75;5017132;28;20026;-62
2022/02/28 01:07:41;;;;;;;10.75;5.22;;;;;;;2.17;66.77;103104.94;5026692;28;20469;-62
2022/02/28 01:10:09;;;;;;;9.00;5.32;;;;;;;2.11;66.92;103118.59;5025370;28;20101;-61
2022/02/28 01:12:35;;;;;;;10.38;4.97;;;;;;;1.99;67.36;103111.19;5026159;28;20108;-60
2022/02/28 01:15:01;;;;;;;9.02;5.20;;;;;;;1.84;67.68;103116.69;5026038;28;20133;-62
2022/02/28 01:17:26;;;;;;;12.60;5.05;;;;;;;1.76;68.41;103111.19;5025880;28;20052;-60
2022/02/28 01:19:52;;;;;;;12.82;5.40;;;;;;;1.74;68.69;103113.72;5026874;28;20010;-60
2022/02/28 01:22:17;;;;;;;7.65;5.18;;;;;;;1.77;68.58;103123.34;5025305;28;20587;-59
2022/02/28 01:24:42;;;;;;;10.52;4.88;;;;;;;1.72;68.70;103120.56;5025729;28;20026;-60
2022/02/28 01:27:08;;;;;;;11.77;5.47;;;;;;;1.65;68.94;103123.72;5025472;28;20032;-61
2022/02/28 01:29:34;;;;;;;13.15;6.03;;;;;;;1.62;69.11;103121.00;5022875;28;20144;-60
2022/02/28 01:31:59;;;;;;;12.75;5.80;;;;;;;1.61;69.02;103127.03;5025698;28;20006;-60
2022/02/28 01:34:25;;;;;;;12.73;5.40;;;;;;;1.57;68.98;103127.75;5025751;28;20053;-62
2022/02/28 01:36:50;;;;;;;10.02;5.55;;;;;;;1.53;69.40;103128.47;5026277;28;20045;-60
2022/02/28 01:39:15;;;;;;;11.68;5.10;;;;;;;1.49;69.24;103128.31;5026672;28;20025;-62
2022/02/28 01:41:41;;;;;;;12.65;5.35;;;;;;;1.43;69.57;103125.47;5024222;28;20029;-61
2022/02/28 01:44:08;;;;;;;8.30;5.38;;;;;;;1.36;69.81;103126.03;5024933;28;20029;-61
2022/02/28 01:46:34;;;;;;;9.80;5.13;;;;;;;1.24;70.16;103124.69;5024900;28;20508;-62
2022/02/28 01:49:00;;;;;;;14.60;5.57;;;;;;;1.18;70.83;103127.06;5025847;28;20373;-62
2022/02/28 01:51:25;;;;;;;8.00;5.07;;;;;;;1.08;70.74;103132.69;5026357;28;20036;-62
2022/02/28 01:53:51;;;;;;;14.93;5.88;;;;;;;1.00;71.26;103128.03;5032784;28;20060;-62
2022/02/28 01:56:16;;;;;;;11.02;4.97;;;;;;;0.93;71.38;103120.78;5045484;28;20399;-62
2022/02/28 01:58:42;;;;;;;12.18;5.97;;;;;;;0.90;71.62;103125.84;5045687;28;20021;-62
2022/02/28 02:01:07;;;;;;;8.60;5.72;;;;;;;0.90;71.82;103115.47;5045826;28;20056;-61
2022/02/28 02:03:33;;;;;;;13.52;5.75;;;;;;;0.93;71.97;103114.72;5045888;28;20033;-60
2022/02/28 02:05:59;;;;;;;9.57;5.13;;;;;;;0.96;71.66;103114.88;5043403;28;20025;-63
2022/02/28 02:08:26;;;;;;;11.38;5.55;;;;;;;1.00;71.54;103117.63;5046358;28;20036;-62
2022/02/28 02:10:51;;;;;;;11.82;5.90;;;;;;;1.00;71.52;103125.41;5044812;28;20028;-61
2022/02/28 02:13:17;;;;;;;8.57;5.75;;;;;;;1.05;71.61;103124.75;5045127;28;20041;-62
2022/02/28 02:15:42;;;;;;;12.55;6.00;;;;;;;1.04;71.28;103117.75;5034297;28;20046;-61
2022/02/28 02:18:08;;;;;;;9.63;5.88;;;;;;;1.08;71.36;103114.50;5025460;28;20034;-62
2022/02/28 02:20:38;;;;;;;12.55;6.00;;;;;;;1.08;71.43;103117.09;5025320;28;20140;-62
2022/02/28 02:23:10;;;;;;;10.13;6.10;;;;;;;1.07;71.31;103112.72;5025510;28;20247;-62
2022/02/28 02:25:36;;;;;;;11.43;5.65;;;;;;;1.02;71.49;103112.50;5025989;28;20123;-62
2022/02/28 02:28:02;;;;;;;12.30;5.70;;;;;;;0.99;71.73;103110.69;5024242;28;20021;-61
2022/02/28 02:30:28;;;;;;;10.73;6.20;;;;;;;0.96;71.84;103113.13;5025595;28;20145;-62
2022/02/28 02:32:53;;;;;;;13.98;5.22;;;;;;;0.97;71.68;103109.72;5025011;28;20502;-61
2022/02/28 02:35:19;;;;;;;12.40;5.65;;;;;;;0.95;71.65;103113.97;5024961;28;20045;-60
2022/02/28 02:37:44;;;;;;;9.38;5.30;;;;;;;0.94;71.75;103114.81;5029308;28;20100;-61
2022/02/28 02:40:10;;;;;;;15.35;5.80;;;;;;;0.95;71.56;103110.47;5037583;28;20491;-62
2022/02/28 02:42:36;;;;;;;16.08;5.63;;;;;;;0.93;71.63;103118.19;5047451;28;20017;-62
2022/02/28 02:45:01;;;;;;;8.02;5.05;;;;;;;0.91;71.54;103112.06;5049280;28;20024;-61
2022/02/28 02:47:26;;;;;;;8.07;5.50;;;;;;;0.91;71.60;103106.88;5049231;28;20024;-62
2022/02/28 02:49:52;;;;;;;15.35;5.30;;;;;;;0.88;71.62;103098.94;5048463;28;20032;-62
2022/02/28 02:52:17;;;;;;;11.20;5.53;;;;;;;0.86;71.86;103104.06;5049375;28;20024;-62
2022/02/28 02:54:42;;;;;;;10.15;5.70;;;;;;;0.86;71.81;103100.59;5048242;28;20029;-62
2022/02/28 02:57:08;;;;;;;10.82;5.05;;;;;;;0.85;71.80;103101.41;5031076;28;20061;-62
2022/02/28 02:59:33;;;;;;;10.68;5.18;;;;;;;0.85;71.54;103101.41;5011552;28;20247;-62
2022/02/28 03:01:58;;;;;;;10.25;5.65;;;;;;;0.85;71.68;103098.81;5028374;28;20044;-60
2022/02/28 03:04:24;;;;;;;10.85;5.10;;;;;;;0.84;71.53;103099.66;5027190;28;20395;-61
2022/02/28 03:06:49;;;;;;;13.38;5.97;;;;;;;0.84;71.84;103097.06;5027619;28;20033;-61
2022/02/28 03:09:15;;;;;;;15.02;5.55;;;;;;;0.84;71.83;103097.06;5018193;28;20034;-60
2022/02/28 03:11:41;;;;;;;11.65;5.70;;;;;;;0.83;71.72;103098.75;5008710;28;20032;-61
2022/02/28 03:14:07;;;;;;;11.95;5.80;;;;;;;0.85;71.67;103094.50;5006444;28;20083;-62
2022/02/28 03:16:32;;;;;;;9.95;5.55;;;;;;;0.83;71.35;103098.75;5009069;28;20427;-62
2022/02/28 03:18:57;;;;;;;13.60;5.95;;;;;;;0.82;71.62;103096.09;5040573;28;20029;-61
2022/02/28 03:21:24;;;;;;;10.55;5.28;;;;;;;0.75;71.55;103095.81;5047079;28;20557;-61
2022/02/28 03:23:49;;;;;;;8.43;5.20;;;;;;;0.72;71.86;103098.28;5047811;28;20116;-61
2022/02/28 03:26:14;;;;;;;10.18;5.30;;;;;;;0.67;71.80;103094.59;5045722;28;20025;-62
2022/02/28 03:28:40;;;;;;;9.10;5.38;;;;;;;0.64;71.82;103097.06;5046761;28;20040;-62
2022/02/28 03:31:05;;;;;;;10.80;5.55;;;;;;;0.62;72.03;103098.69;5047674;28;20294;-62
2022/02/28 03:33:30;;;;;;;11.32;5.78;;;;;;;0.63;72.28;103095.25;5047254;28;20029;-62
2022/02/28 03:35:56;;;;;;;14.10;5.68;;;;;;;0.61;71.88;103090.00;5020300;28;20030;-61
2022/02/28 03:38:21;;;;;;;11.32;5.55;;;;;;;0.63;71.83;103093.56;5008734;28;20710;-61
2022/02/28 03:40:48;;;;;;;13.23;5.95;;;;;;;0.66;71.77;103090.22;5006800;28;20037;-60
2022/02/28 03:43:13;;;;;;;14.60;5.78;;;;;;;0.64;71.76;103084.09;5008968;28;20088;-60
2022/02/28 03:45:39;;;;;;;12.57;5.38;;;;;;;0.63;72.04;103095.25;5032039;28;20025;-61
2022/02/28 03:48:04;;;;;;;12.52;5.30;;;;;;;0.61;72.11;103091.72;5048158;28;20029;-61
2022/02/28 03:50:29;;;;;;;8.90;5.25;;;;;;;0.61;71.88;103089.13;5047140;28;20108;-61
2022/02/28 03:52:55;;;;;;;10.05;5.72;;;;;;;0.64;71.76;103086.69;5048191;28;20025;-62
2022/02/28 03:55:20;;;;;;;11.75;5.57;;;;;;;0.62;71.96;103090.91;5029058;28;20045;-60
2022/02/28 03:57:47;;;;;;;9.75;5.57;;;;;;;0.59;72.07;103082.97;5026803;28;20057;-60
2022/02/28 04:00:13;;;;;;;11.30;5.25;;;;;;;0.58;71.84;103086.41;5028007;28;20075;-60
2022/02/28 04:02:39;;;;;;;7.72;4.88;;;;;;;0.60;71.94;103087.38;5021346;28;20053;-60
2022/02/28 04:05:05;;;;;;;14.27;6.43;;;;;;;0.61;71.86;103091.72;5008226;28;20122;-61
2022/02/28 04:07:30;;;;;;;7.93;4.60;;;;;;;0.60;71.61;103074.41;5007038;28;20468;-60
2022/02/28 04:09:55;;;;;;;7.10;4.95;;;;;;;0.59;71.71;103078.69;5008128;28;20079;-61
2022/02/28 04:12:21;;;;;;;8.27;5.60;;;;;;;0.60;71.46;103079.59;5005481;28;20401;-62
2022/02/28 04:14:47;;;;;;;9.75;5.10;;;;;;;0.61;71.48;103078.75;5007639;28;20564;-62
2022/02/28 04:17:12;;;;;;;14.07;5.35;;;;;;;0.63;71.22;103074.50;5007277;28;20436;-60
2022/02/28 04:19:38;;;;;;;7.63;5.13;;;;;;;0.67;71.23;103076.44;5007571;28;20080;-61
2022/02/28 04:22:04;;;;;;;12.38;5.55;;;;;;;0.72;71.04;103069.72;5023100;28;20029;-61
2022/02/28 04:24:29;;;;;;;8.35;5.13;;;;;;;0.71;71.01;103070.56;5025504;28;20029;-61
2022/02/28 04:26:55;;;;;;;10.68;5.05;;;;;;;0.71;70.75;103075.75;5026348;28;20440;-60
2022/02/28 04:29:21;;;;;;;10.68;5.18;;;;;;;0.67;71.16;103073.84;5027029;28;20107;-60
2022/02/28 04:31:46;;;;;;;13.88;5.85;;;;;;;0.62;71.06;103067.56;5027642;28;20022;-63
2022/02/28 04:34:13;;;;;;;9.32;5.15;;;;;;;0.59;71.19;103070.00;5027100;28;20398;-60
2022/02/28 04:36:39;;;;;;;7.93;5.38;;;;;;;0.58;71.42;103065.66;5027369;28;20025;-60
2022/02/28 04:39:04;;;;;;;9.00;5.43;;;;;;;0.57;71.29;103064.75;5035178;28;20033;-60
2022/02/28 04:41:29;;;;;;;9.68;5.55;;;;;;;0.53;71.56;103060.25;5046567;28;20029;-60
2022/02/28 04:43:55;;;;;;;11.05;5.00;;;;;;;0.52;71.48;103060.19;5039791;28;20483;-60
2022/02/28 04:46:20;;;;;;;9.05;5.22;;;;;;;0.49;71.53;103060.94;5027360;28;20026;-60
2022/02/28 04:48:45;;;;;;;9.38;4.75;;;;;;;0.52;71.57;103065.38;5026278;28;20041;-60
2022/02/28 04:51:11;;;;;;;10.57;4.95;;;;;;;0.49;71.46;103064.41;5026859;28;20045;-61
2022/02/28 04:53:36;;;;;;;11.55;5.30;;;;;;;0.53;71.40;103067.13;5027227;28;20030;-61
2022/02/28 04:56:02;;;;;;;14.10;5.53;;;;;;;0.49;71.56;103064.41;5025349;28;20522;-63
2022/02/28 04:58:27;;;;;;;11.70;5.28;;;;;;;0.47;71.60;103060.88;5036933;28;20048;-62
2022/02/28 05:00:52;;;;;;;9.77;4.95;;;;;;;0.49;71.55;103056.63;5045222;28;20063;-62
2022/02/28 05:03:18;;;;;;;9.18;4.65;;;;;;;0.47;71.32;103055.69;5046267;28;20029;-61
2022/02/28 05:05:44;;;;;;;8.93;5.18;;;;;;;0.48;71.33;103054.84;5041824;28;20133;-60
2022/02/28 05:08:09;;;;;;;11.13;5.50;;;;;;;0.48;71.41;103052.25;5046518;28;20036;-62
2022/02/28 05:10:34;;;;;;;10.15;4.53;;;;;;;0.44;71.36;103050.38;5044531;28;20518;-61
2022/02/28 05:13:00;;;;;;;17.17;6.18;;;;;;;0.46;71.77;103055.63;5027701;28;20492;-60
2022/02/28 05:15:25;;;;;;;8.90;5.28;;;;;;;0.41;71.89;103055.41;5025511;28;20535;-63
2022/02/28 05:17:50;;;;;;;8.35;5.07;;;;;;;0.42;71.51;103064.09;5025487;28;20451;-61
2022/02/28 05:20:18;;;;;;;12.98;5.10;;;;;;;0.43;71.60;103052.88;5016728;28;20485;-61
2022/02/28 05:22:44;;;;;;;9.98;5.13;;;;;;;0.42;71.58;103053.72;5036717;28;20441;-59
2022/02/28 05:25:09;;;;;;;9.25;5.07;;;;;;;0.44;71.43;103063.34;5046051;28;20025;-60
2022/02/28 05:27:39;;;;;;;7.30;4.25;;;;;;;0.46;71.36;103056.53;5044651;28;20094;-59
2022/02/28 05:30:06;;;;;;;12.43;5.10;;;;;;;0.40;71.42;103056.25;5034130;28;20029;-60
2022/02/28 05:32:31;;;;;;;10.43;5.07;;;;;;;0.42;71.33;103064.09;5020145;28;20066;-61
2022/02/28 05:34:56;;;;;;;10.20;4.70;;;;;;;0.34;71.81;103058.56;5036430;28;20523;-62
2022/02/28 05:37:22;;;;;;;10.55;4.22;;;;;;;0.33;71.69;103068.03;5045792;28;20024;-62
2022/02/28 05:39:47;;;;;;;10.85;4.90;;;;;;;0.31;71.99;103077.47;5045525;28;20043;-62
2022/02/28 05:42:12;;;;;;;7.57;5.03;;;;;;;0.22;72.12;103072.75;5044831;28;20017;-61
2022/02/28 05:44:38;;;;;;;11.90;4.97;;;;;;;0.21;72.23;103070.97;5039651;28;20010;-61
2022/02/28 05:47:03;;;;;;;8.68;5.13;;;;;;;0.12;72.49;103075.75;5022505;28;20251;-62
2022/02/28 05:49:29;;;;;;;9.13;5.07;;;;;;;0.06;72.92;103088.44;5019767;28;20026;-62
2022/02/28 05:51:54;;;;;;;8.98;5.55;;;;;;;0.05;72.87;103091.81;5026467;28;20036;-61
2022/02/28 05:54:19;;;;;;;10.75;5.18;;;;;;;-0.03;73.13;103087.16;5022222;28;20052;-63
2022/02/28 05:56:45;;;;;;;13.07;5.30;;;;;;;-0.09;73.24;103092.06;5028946;28;20044;-63
2022/02/28 05:59:10;;;;;;;11.55;4.90;;;;;;;-0.16;73.35;103092.59;5026555;28;20029;-62
2022/02/28 06:01:37;;;;;;;7.22;4.53;;;;;;;-0.20;73.52;103094.16;5036404;28;20372;-62
2022/02/28 06:04:02;;;;;;;10.85;5.63;;;;;;;-0.23;73.92;103098.28;5044181;28;20025;-62
2022/02/28 06:06:29;;;;;;;11.02;5.57;;;;;;;-0.28;73.94;103096.38;5043174;28;20372;-61
2022/02/28 06:08:55;;;;;;;10.07;5.25;;;;;;;-0.29;74.15;103110.16;5045229;28;20067;-62
2022/02/28 06:11:20;;;;;;;11.50;4.75;;;;;;;-0.32;74.28;103111.69;5049130;28;20313;-60
2022/02/28 06:13:46;;;;;;;7.55;4.72;;;;;;;-0.34;74.26;103116.81;5040199;28;20084;-61
2022/02/28 06:16:11;;;;;;;13.23;5.63;;;;;;;-0.41;74.22;103115.63;5047007;28;20041;-61
2022/02/28 06:18:36;;;;;;;15.90;5.03;;;;;;;-0.49;74.75;103118.66;5037085;28;20044;-62
2022/02/28 06:21:02;;;;;;;10.55;4.72;;;;;;;-0.56;74.91;103112.28;5031314;28;20025;-60
2022/02/28 06:23:28;;;;;;;8.63;5.20;;;;;;;-0.55;76.28;103104.59;5015744;28;20369;-61
2022/02/28 06:25:54;;;;;;;8.45;5.80;;;;;;;-0.56;76.32;103109.69;5008667;28;20080;-62
2022/02/28 06:28:22;;;;;;;11.38;5.50;;;;;;;-0.53;76.40;103110.75;5013410;28;20117;-62
2022/02/28 06:30:48;;;;;;;9.30;5.40;;;;;;;-0.51;76.37;103108.22;5027102;28;20028;-60
2022/02/28 06:33:14;;;;;;;9.82;5.43;;;;;;;-0.47;76.29;103115.34;5028845;28;20025;-62
2022/02/28 06:35:40;;;;;;;10.27;5.38;;;;;;;-0.48;76.27;103110.06;5029899;28;20029;-60
2022/02/28 06:38:09;;;;;;;10.77;5.18;;;;;;;-0.49;76.38;103118.66;5029228;28;20025;-61
2022/02/28 06:40:36;;;;;;;13.25;5.63;;;;;;;-0.46;76.40;103122.28;5030441;28;20337;-64
2022/02/28 06:43:02;;;;;;;12.85;5.95;;;;;;;-0.46;76.16;103117.09;5039140;28;20482;-56
2022/02/28 06:45:28;;;;;;;10.68;5.50;;;;;;;-0.43;75.88;103124.13;5037876;28;20033;-58
2022/02/28 06:47:53;;;;;;;8.43;4.97;;;;;;;-0.41;75.96;103120.81;5038701;28;20021;-59
2022/02/28 06:50:18;;;;;;;13.25;6.38;;;;;;;-0.36;76.21;103127.91;5039149;28;20167;-60
2022/02/28 06:52:43;;;;;;;13.50;5.35;;;;;;;-0.36;75.64;103131.38;5040313;28;20037;-61
2022/02/28 06:55:09;;;;;;;10.77;5.18;;;;;;;-0.34;75.46;103137.53;5038353;28;20027;-60
2022/02/28 06:57:34;;;;;;;9.25;5.18;;;;;;;-0.31;75.37;103132.50;5047330;28;20090;-59
2022/02/28 06:59:59;;;;;;;10.27;5.65;;;;;;;-0.25;75.19;103137.09;5047467;28;20053;-61
2022/02/28 07:02:25;;;;;;;13.25;5.75;;;;;;;-0.26;75.11;103136.22;5048629;28;20013;-62
2022/02/28 07:04:50;;;;;;;11.27;5.93;;;;;;;-0.19;75.11;103133.91;5046042;28;20029;-61
2022/02/28 07:07:16;;;;;;;8.77;4.75;;;;;;;-0.15;74.80;103133.25;5044378;28;20060;-61
2022/02/28 07:09:46;;;;;;;12.55;5.68;;;;;;;-0.10;74.71;103128.28;5044142;28;20024;-62
2022/02/28 07:12:12;;;;;;;;;;;;;;;-0.01;74.48;103131.31;5048014;28;20021;-60
2022/02/28 07:14:38;;;;;;;8.68;4.85;;;;;;;0.06;73.83;103135.97;5044018;28;19971;-62
2022/02/28 07:17:03;;;;;;;14.90;5.45;;;;;;;0.08;73.79;103136.94;5044471;28;20040;-59
2022/02/28 07:19:28;;;;;;;11.23;5.70;;;;;;;0.12;73.76;103149.22;5037011;28;20108;-61
2022/02/28 07:21:54;;;;;;;9.20;5.10;;;;;;;0.18;73.69;103147.75;5035168;28;20287;-58
2022/02/28 07:24:20;;;;;;;7.15;4.80;;;;;;;0.24;73.64;103148.03;5035741;28;20487;-59
2022/02/28 07:26:45;;;;;;;13.48;6.15;;;;;;;0.28;73.11;103154.22;5037594;28;20040;-53
2022/02/28 07:29:11;;;;;;;10.90;5.55;;;;;;;0.32;72.92;103157.03;5037291;28;20032;-56
2022/02/28 07:31:36;;;;;;;11.45;6.20;;;;;;;0.34;72.71;103154.53;5036837;28;20026;-58
2022/02/28 07:34:02;;;;;;;10.77;6.10;;;;;;;0.42;72.56;103160.94;5026931;28;20013;-57
2022/02/28 07:36:28;;;;;;;10.20;5.63;;;;;;;0.47;72.24;103161.16;5027004;28;20103;-58
2022/02/28 07:38:53;;;;;;;9.52;5.05;;;;;;;0.54;71.77;103168.41;5026164;28;20025;-59
2022/02/28 07:41:18;;;;;;;11.73;5.63;;;;;;;0.58;71.97;103169.44;5023760;28;20112;-58
2022/02/28 07:43:44;;;;;;;8.77;4.97;;;;;;;0.66;71.54;103174.97;5027259;28;20541;-59
2022/02/28 07:46:09;;;;;;;9.73;5.40;;;;;;;0.69;71.71;103172.53;5026169;28;20056;-57
2022/02/28 07:48:34;;;;;;;7.78;5.18;;;;;;;0.74;70.90;103177.09;5010295;28;20034;-59
2022/02/28 07:51:00;;;;;;;9.82;5.25;;;;;;;0.77;71.04;103168.56;5007277;28;20518;-60
2022/02/28 07:53:25;;;;;;;8.98;4.97;;;;;;;0.77;71.09;103175.44;5006691;28;20101;-58
2022/02/28 07:55:51;;;;;;;13.02;5.95;;;;;;;0.83;70.65;103179.22;5026082;28;20032;-59
2022/02/28 07:58:16;;;;;;;11.23;5.88;;;;;;;0.87;70.83;103175.03;5047278;28;20033;-59
2022/02/28 08:00:42;;;;;;;14.02;6.50;;;;;;;0.94;70.36;103177.09;5046935;28;20170;-59
2022/02/28 08:03:07;;;;;;;13.35;5.88;;;;;;;0.97;70.17;103174.63;5046333;28;20033;-61
2022/02/28 08:05:32;;;;;;;9.52;5.68;;;;;;;1.01;70.65;103175.66;5046791;28;20117;-59
2022/02/28 08:07:58;;;;;;;11.07;5.50;;;;;;;1.06;70.60;103175.84;5046911;28;20025;-60
2022/02/28 08:10:23;;;;;;;7.63;5.57;;;;;;;1.07;69.87;103181.13;5046261;28;20112;-58
2022/02/28 08:12:49;;;;;;;11.35;5.65;;;;;;;1.13;70.12;103171.00;5047351;28;20111;-61
2022/02/28 08:15:14;;;;;;;11.57;5.28;;;;;;;1.15;70.21;103165.88;5046633;28;20033;-61
2022/02/28 08:17:40;;;;;;;9.05;5.78;;;;;;;1.23;70.00;103166.19;5032007;28;20052;-59
2022/02/28 08:20:07;;;;;;;15.32;5.65;;;;;;;1.30;69.89;103168.25;5032916;28;21092;-60
2022/02/28 08:22:32;;;;;;;15.88;6.53;;;;;;;1.35;69.47;103165.81;5036808;28;20033;-59
2022/02/28 08:24:58;;;;;;;9.10;5.28;;;;;;;1.39;69.36;103167.75;5033761;28;20031;-63
2022/02/28 08:27:24;;;;;;;11.90;6.22;;;;;;;1.41;69.35;103166.06;5037329;28;20021;-60
2022/02/28 08:29:49;;;;;;;11.02;5.50;;;;;;;1.48;68.89;103162.91;5028554;28;20021;-61
2022/02/28 08:32:15;;;;;;;10.93;6.00;;;;;;;1.52;68.97;103171.72;5010234;28;20161;-61
2022/02/28 08:34:40;;;;;;;11.13;6.43;;;;;;;1.57;68.80;103161.53;5008982;28;20304;-60
2022/02/28 08:37:06;;;;;;;9.70;6.20;;;;;;;1.59;68.80;103155.56;4996936;28;20025;-60
2022/02/28 08:39:31;;;;;;;13.30;6.43;;;;;;;1.68;68.30;103159.38;4999159;28;20483;-58
2022/02/28 08:41:56;;;;;;;13.20;5.93;;;;;;;1.69;68.30;103156.84;5006729;28;20052;-59
2022/02/28 08:44:22;;;;;;;8.52;5.93;;;;;;;1.80;68.10;103159.00;5011952;28;20419;-60
2022/02/28 08:46:47;;;;;;;9.88;5.38;;;;;;;1.81;68.08;103152.97;5005232;28;20029;-60
2022/02/28 08:49:16;;;;;;;9.10;5.60;;;;;;;1.84;68.09;103155.69;5007017;28;20026;-61
2022/02/28 08:51:43;;;;;;;9.48;5.72;;;;;;;1.98;68.12;103143.22;5007707;28;20029;-61
2022/02/28 08:54:08;;;;;;;15.73;6.60;;;;;;;2.01;68.33;103136.44;5005491;28;20083;-62
2022/02/28 08:56:33;;;;;;;12.20;5.60;;;;;;;2.04;67.60;103145.19;5006259;28;20034;-58
2022/02/28 08:58:59;;;;;;;12.10;6.00;;;;;;;2.11;67.27;103139.41;4987889;28;20148;-61
2022/02/28 09:01:24;;;;;;;12.80;5.85;;;;;;;2.16;67.06;103136.97;4996131;28;20021;-60
2022/02/28 09:03:50;;;;;;;11.00;5.78;;;;;;;2.26;67.10;103121.75;4995755;28;20033;-60
2022/02/28 09:06:15;;;;;;;11.20;6.13;;;;;;;2.32;67.35;103130.63;4993799;28;20029;-61
2022/02/28 09:08:41;;;;;;;13.38;6.45;;;;;;;2.41;67.13;103125.78;5002574;28;20071;-61
2022/02/28 09:11:06;;;;;;;9.85;5.88;;;;;;;2.56;66.42;103125.44;5026285;28;20739;-58
2022/02/28 09:13:33;;;;;;;8.95;5.97;;;;;;;2.63;66.01;103123.97;5025603;28;20055;-57
2022/02/28 09:15:59;;;;;;;10.52;6.20;;;;;;;2.70;66.07;103120.75;5022493;28;20516;-59
2022/02/28 09:18:24;;;;;;;11.05;5.78;;;;;;;2.75;65.68;103114.00;5005935;28;20421;-57
2022/02/28 09:20:49;;;;;;;9.40;5.65;;;;;;;2.86;65.04;103119.56;5006729;28;20022;-58
2022/02/28 09:23:15;;;;;;;8.95;6.15;;;;;;;2.88;65.37;103124.81;5004159;28;20060;-61
2022/02/28 09:25:40;;;;;;;9.65;6.15;;;;;;;3.00;64.96;103133.09;5018330;28;20035;-58
2022/02/28 09:28:05;;;;;;;16.88;6.22;;;;;;;3.10;64.63;103120.38;5011768;28;20496;-57
2022/02/28 09:30:31;;;;;;;12.98;5.88;;;;;;;3.26;64.01;103127.00;5005742;28;20032;-60
2022/02/28 09:32:56;;;;;;;10.80;6.07;;;;;;;3.32;63.73;103126.31;5001120;28;20040;-58
2022/02/28 09:35:24;;;;;;;8.95;5.82;;;;;;;3.50;63.31;103116.50;5010059;28;20032;-61
2022/02/28 09:37:49;;;;;;;11.82;6.25;;;;;;;3.51;63.23;103113.06;5024756;28;20053;-60
2022/02/28 09:40:15;;;;;;;7.07;5.13;;;;;;;3.69;62.70;103111.88;5005268;28;20532;-59
2022/02/28 09:42:41;;;;;;;11.25;6.30;;;;;;;3.79;62.33;103124.34;5004804;28;20445;-57
2022/02/28 09:45:08;;;;;;;10.23;6.15;;;;;;;3.86;62.54;103115.00;4986214;28;20647;-58
2022/02/28 09:47:33;;;;;;;13.65;6.32;;;;;;;3.98;61.75;103114.50;5012125;28;20387;-60
2022/02/28 09:49:58;;;;;;;14.50;5.95;;;;;;;4.03;61.18;103122.44;5007296;28;20025;-59
2022/02/28 09:52:24;;;;;;;10.35;5.70;;;;;;;4.11;61.49;103109.63;5010995;28;20032;-56
2022/02/28 09:54:50;;;;;;;11.35;5.75;;;;;;;4.20;60.94;103112.53;5011777;28;20482;-58
2022/02/28 09:57:20;;;;;;;12.60;6.50;;;;;;;4.35;61.08;103108.59;5012533;28;20037;-57
2022/02/28 09:59:46;;;;;;;8.43;5.10;;;;;;;4.53;60.83;103108.22;5012976;28;20060;-59
2022/02/28 10:02:11;;;;;;;13.38;6.20;;;;;;;4.52;60.20;103096.88;5012916;28;20037;-61
2022/02/28 10:04:36;;;;;;;8.88;5.85;;;;;;;4.62;60.11;103102.38;5010802;28;20044;-60
2022/02/28 10:07:25;;;;;;;11.63;6.07;;;;;;;4.73;59.41;103087.88;5015367;28;20459;-59
2022/02/28 10:10:12;;;;;;;11.85;6.03;;;;;;;4.75;59.14;103090.53;5011274;28;20025;-61
2022/02/28 10:12:38;;;;;;;12.88;5.82;;;;;;;4.83;58.70;103091.63;5012218;28;20025;-62
2022/02/28 10:15:12;;;;;;;13.32;6.65;;;;;;;4.96;58.96;103097.19;5015082;28;20067;-61
2022/02/28 10:17:51;;;;;;;8.48;6.30;;;;;;;5.05;58.67;103098.31;5021912;28;20079;-63
2022/02/28 10:20:24;;;;;;;13.18;6.22;;;;;;;5.15;59.63;103101.16;5023345;28;20056;-63
2022/02/28 10:23:00;;;;;;;11.55;6.07;;;;;;;5.32;60.34;103104.19;5005333;28;20041;-64
2022/02/28 10:25:33;;;;;;;22.63;6.40;;;;;;;5.39;58.25;103116.56;5004553;28;20032;-65
2022/02/28 10:28:31;;;;;;;9.82;6.15;;;;;;;5.55;58.17;103114.31;5004468;28;20216;-64
2022/02/28 10:31:04;;;;;;;7.40;5.78;;;;;;;5.52;58.69;103109.91;4978957;28;20042;-63
2022/02/28 10:33:35;;;;;;;8.43;5.43;;;;;;;5.61;57.29;103108.34;5010493;28;20106;-62
2022/02/28 10:36:15;;;;;;;8.77;6.38;;;;;;;5.66;57.71;103109.34;5002388;28;20033;-62
2022/02/28 10:38:45;;;;;;;13.48;6.55;;;;;;;5.72;57.45;103113.84;4989775;28;20522;-62
2022/02/28 10:41:23;;;;;;;11.40;5.72;;;;;;;5.84;56.57;103121.09;4993830;28;20603;-64
2022/02/28 10:43:51;;;;;;;10.75;6.55;;;;;;;5.94;56.50;103125.69;4998583;28;20030;-62
2022/02/28 10:46:25;;;;;;;9.93;6.55;;;;;;;6.02;57.83;103125.88;5000096;28;20452;-63
2022/02/28 10:49:09;;;;;;;10.70;6.30;;;;;;;6.02;57.10;103129.34;4989070;28;20753;-63
2022/02/28 10:51:57;;;;;;;8.40;6.40;;;;;;;6.25;56.51;103133.34;5004232;28;20029;-62
2022/02/28 10:54:25;;;;;;;10.05;5.70;;;;;;;6.44;53.80;103142.47;5000801;28;20417;-62
2022/02/28 10:56:55;;;;;;;8.55;5.25;;;;;;;6.56;52.83;103133.97;4997464;28;20064;-64
2022/02/28 10:59:23;;;;;;;13.70;6.00;;;;;;;6.63;51.15;103133.28;5007037;28;20030;-62
2022/02/28 11:01:49;;;;;;;8.00;5.70;;;;;;;6.77;50.91;103135.28;5029116;28;20029;-64
2022/02/28 11:04:14;;;;;;;13.63;5.78;;;;;;;6.75;51.39;103122.13;5028379;28;20028;-60
2022/02/28 11:06:42;;;;;;;9.90;5.35;;;;;;;6.90;50.34;103118.94;5011880;28;20538;-66
2022/02/28 11:09:07;;;;;;;8.18;5.05;;;;;;;7.06;49.93;103121.81;4995968;28;20033;-63
2022/02/28 11:11:33;;;;;;;11.40;5.80;;;;;;;7.25;50.05;103130.88;4996590;28;20376;-67
2022/02/28 11:13:59;;;;;;;11.13;6.05;;;;;;;7.14;51.54;103121.94;5000711;28;20377;-63
2022/02/28 11:16:26;;;;;;;11.52;5.78;;;;;;;7.24;51.33;103112.47;5002335;28;20037;-67
2022/02/28 11:18:52;;;;;;;12.65;6.07;;;;;;;7.18;50.31;103108.03;4995470;28;20038;-65
2022/02/28 11:21:17;;;;;;;11.13;5.75;;;;;;;7.33;50.77;103102.16;5007782;28;20368;-65
2022/02/28 11:23:45;;;;;;;9.45;5.93;;;;;;;7.41;49.49;103105.78;5014637;28;20108;-67